sensor_id;sensor_type;location;lat;lon;timestamp;P1;durP1;ratioP1;P2;durP2;ratioP2
75700;SDS011;64321;48.796;44.740;2023-09-19T00:03:23;20.38;;;7.50;;
75700;SDS011;64321;48.796;44.740;2023-09-19T00:08:28;22.42;;;8.15;;
75700;SDS011;64321;48.796;44.740;2023-09-19T00:13:30;14.73;;;6.30;;
75700;SDS011;64321;48.796;44.740;2023-09-19T00:18:33;15.18;;;6.40;;
75700;SDS011;64321;48.796;44.740;2023-09-19T00:23:37;13.00;;;6.35;;
75700;SDS011;64321;48.796;44.740;2023-09-19T00:28:40;15.20;;;6.40;;
75700;SDS011;64321;48.796;44.740;2023-09-19T00:33:44;13.32;;;6.22;;
75700;SDS011;64321;48.796;44.740;2023-09-19T00:38:46;15.82;;;5.80;;
75700;SDS011;64321;48.796;44.740;2023-09-19T00:43:48;13.63;;;6.70;;
75700;SDS011;64321;48.796;44.740;2023-09-19T00:48:55;10.23;;;5.55;;
75700;SDS011;64321;48.796;44.740;2023-09-19T00:53:59;12.23;;;5.63;;
75700;SDS011;64321;48.796;44.740;2023-09-19T00:59:01;11.35;;;5.90;;
75700;SDS011;64321;48.796;44.740;2023-09-19T01:04:03;10.63;;;5.30;;
75700;SDS011;64321;48.796;44.740;2023-09-19T01:09:06;11.80;;;5.72;;
75700;SDS011;64321;48.796;44.740;2023-09-19T01:30:11;8.82;;;4.47;;
75700;SDS011;64321;48.796;44.740;2023-09-19T01:35:16;10.15;;;4.47;;
75700;SDS011;64321;48.796;44.740;2023-09-19T01:40:18;8.82;;;4.28;;
75700;SDS011;64321;48.796;44.740;2023-09-19T01:50:38;8.85;;;4.28;;
75700;SDS011;64321;48.796;44.740;2023-09-19T01:55:47;9.25;;;4.70;;
75700;SDS011;64321;48.796;44.740;2023-09-19T02:00:53;8.52;;;4.35;;
75700;SDS011;64321;48.796;44.740;2023-09-19T02:05:57;9.68;;;4.70;;
75700;SDS011;64321;48.796;44.740;2023-09-19T02:10:59;8.55;;;4.82;;
75700;SDS011;64321;48.796;44.740;2023-09-19T02:16:02;8.07;;;4.47;;
75700;SDS011;64321;48.796;44.740;2023-09-19T02:21:06;8.45;;;4.80;;
75700;SDS011;64321;48.796;44.740;2023-09-19T02:26:08;8.38;;;4.85;;
75700;SDS011;64321;48.796;44.740;2023-09-19T02:31:11;10.35;;;5.80;;
75700;SDS011;64321;48.796;44.740;2023-09-19T02:36:14;10.88;;;5.82;;
75700;SDS011;64321;48.796;44.740;2023-09-19T02:41:19;10.18;;;5.35;;
75700;SDS011;64321;48.796;44.740;2023-09-19T02:46:22;9.07;;;5.15;;
75700;SDS011;64321;48.796;44.740;2023-09-19T02:51:25;10.88;;;5.18;;
75700;SDS011;64321;48.796;44.740;2023-09-19T02:56:28;11.30;;;5.97;;
75700;SDS011;64321;48.796;44.740;2023-09-19T03:01:31;10.27;;;5.40;;
75700;SDS011;64321;48.796;44.740;2023-09-19T03:06:34;15.50;;;6.10;;
75700;SDS011;64321;48.796;44.740;2023-09-19T03:11:36;6.90;;;4.10;;
75700;SDS011;64321;48.796;44.740;2023-09-19T03:16:39;7.53;;;4.35;;
75700;SDS011;64321;48.796;44.740;2023-09-19T03:21:42;7.03;;;3.60;;
75700;SDS011;64321;48.796;44.740;2023-09-19T03:26:44;8.48;;;3.75;;
75700;SDS011;64321;48.796;44.740;2023-09-19T03:31:47;6.57;;;3.78;;
75700;SDS011;64321;48.796;44.740;2023-09-19T03:36:49;6.78;;;4.05;;
75700;SDS011;64321;48.796;44.740;2023-09-19T03:41:52;10.13;;;3.90;;
75700;SDS011;64321;48.796;44.740;2023-09-19T03:46:55;9.95;;;4.13;;
75700;SDS011;64321;48.796;44.740;2023-09-19T03:51:58;6.65;;;3.92;;
75700;SDS011;64321;48.796;44.740;2023-09-19T03:57:01;7.55;;;4.80;;
75700;SDS011;64321;48.796;44.740;2023-09-19T04:02:06;9.85;;;4.47;;
75700;SDS011;64321;48.796;44.740;2023-09-19T04:07:13;10.98;;;5.38;;
75700;SDS011;64321;48.796;44.740;2023-09-19T04:12:16;10.80;;;5.28;;
75700;SDS011;64321;48.796;44.740;2023-09-19T04:17:21;7.50;;;4.43;;
75700;SDS011;64321;48.796;44.740;2023-09-19T04:22:23;7.28;;;4.50;;
75700;SDS011;64321;48.796;44.740;2023-09-19T04:27:26;9.25;;;4.93;;
75700;SDS011;64321;48.796;44.740;2023-09-19T04:32:28;10.93;;;4.72;;
75700;SDS011;64321;48.796;44.740;2023-09-19T04:37:31;9.13;;;4.85;;
75700;SDS011;64321;48.796;44.740;2023-09-19T04:42:33;9.93;;;5.40;;
75700;SDS011;64321;48.796;44.740;2023-09-19T04:47:37;9.52;;;5.32;;
75700;SDS011;64321;48.796;44.740;2023-09-19T04:52:41;9.43;;;4.47;;
75700;SDS011;64321;48.796;44.740;2023-09-19T04:57:47;8.07;;;4.68;;
75700;SDS011;64321;48.796;44.740;2023-09-19T05:02:50;9.30;;;5.00;;
75700;SDS011;64321;48.796;44.740;2023-09-19T05:07:56;10.68;;;5.40;;
75700;SDS011;64321;48.796;44.740;2023-09-19T05:12:58;10.90;;;5.32;;
75700;SDS011;64321;48.796;44.740;2023-09-19T05:18:01;8.73;;;5.13;;
75700;SDS011;64321;48.796;44.740;2023-09-19T05:23:06;10.90;;;5.05;;
75700;SDS011;64321;48.796;44.740;2023-09-19T05:28:14;9.80;;;5.03;;
75700;SDS011;64321;48.796;44.740;2023-09-19T05:33:17;12.43;;;5.07;;
75700;SDS011;64321;48.796;44.740;2023-09-19T05:38:20;13.45;;;6.22;;
75700;SDS011;64321;48.796;44.740;2023-09-19T05:43:22;10.02;;;5.38;;
75700;SDS011;64321;48.796;44.740;2023-09-19T05:48:25;12.57;;;6.00;;
75700;SDS011;64321;48.796;44.740;2023-09-19T05:53:27;12.40;;;6.32;;
75700;SDS011;64321;48.796;44.740;2023-09-19T05:58:30;12.38;;;6.47;;
75700;SDS011;64321;48.796;44.740;2023-09-19T06:03:33;12.63;;;6.80;;
75700;SDS011;64321;48.796;44.740;2023-09-19T06:08:35;13.50;;;7.10;;
75700;SDS011;64321;48.796;44.740;2023-09-19T06:13:37;13.20;;;6.53;;
75700;SDS011;64321;48.796;44.740;2023-09-19T06:18:41;17.42;;;7.38;;
75700;SDS011;64321;48.796;44.740;2023-09-19T06:23:43;12.85;;;6.28;;
75700;SDS011;64321;48.796;44.740;2023-09-19T06:28:46;9.40;;;5.22;;
75700;SDS011;64321;48.796;44.740;2023-09-19T06:33:48;11.30;;;5.22;;
75700;SDS011;64321;48.796;44.740;2023-09-19T06:38:50;12.73;;;5.68;;
75700;SDS011;64321;48.796;44.740;2023-09-19T06:43:53;11.45;;;6.38;;
75700;SDS011;64321;48.796;44.740;2023-09-19T06:48:56;14.70;;;6.18;;
75700;SDS011;64321;48.796;44.740;2023-09-19T06:53:58;10.80;;;5.00;;
75700;SDS011;64321;48.796;44.740;2023-09-19T06:59:00;9.50;;;5.15;;
75700;SDS011;64321;48.796;44.740;2023-09-19T07:04:04;7.70;;;4.38;;
75700;SDS011;64321;48.796;44.740;2023-09-19T07:09:07;8.73;;;4.97;;
75700;SDS011;64321;48.796;44.740;2023-09-19T07:14:10;14.85;;;5.45;;
75700;SDS011;64321;48.796;44.740;2023-09-19T07:19:13;10.50;;;3.92;;
75700;SDS011;64321;48.796;44.740;2023-09-19T07:24:17;7.20;;;4.20;;
75700;SDS011;64321;48.796;44.740;2023-09-19T07:29:19;9.63;;;3.78;;
75700;SDS011;64321;48.796;44.740;2023-09-19T07:34:22;8.52;;;4.07;;
75700;SDS011;64321;48.796;44.740;2023-09-19T07:39:27;6.78;;;3.33;;
75700;SDS011;64321;48.796;44.740;2023-09-19T07:44:29;9.80;;;3.92;;
75700;SDS011;64321;48.796;44.740;2023-09-19T07:49:31;5.75;;;3.65;;
75700;SDS011;64321;48.796;44.740;2023-09-19T07:54:35;8.82;;;3.50;;
75700;SDS011;64321;48.796;44.740;2023-09-19T07:59:37;8.32;;;3.63;;
75700;SDS011;64321;48.796;44.740;2023-09-19T08:04:44;5.93;;;3.17;;
75700;SDS011;64321;48.796;44.740;2023-09-19T08:09:49;5.53;;;3.15;;
75700;SDS011;64321;48.796;44.740;2023-09-19T08:14:51;6.47;;;3.45;;
75700;SDS011;64321;48.796;44.740;2023-09-19T08:19:53;6.40;;;3.13;;
75700;SDS011;64321;48.796;44.740;2023-09-19T08:24:56;5.53;;;2.80;;
75700;SDS011;64321;48.796;44.740;2023-09-19T08:29:59;7.05;;;3.45;;
75700;SDS011;64321;48.796;44.740;2023-09-19T08:35:04;6.57;;;2.88;;
75700;SDS011;64321;48.796;44.740;2023-09-19T08:40:09;6.72;;;3.03;;
75700;SDS011;64321;48.796;44.740;2023-09-19T08:45:12;7.60;;;3.45;;
75700;SDS011;64321;48.796;44.740;2023-09-19T08:50:25;6.25;;;3.35;;
75700;SDS011;64321;48.796;44.740;2023-09-19T08:55:28;8.50;;;3.30;;
75700;SDS011;64321;48.796;44.740;2023-09-19T09:00:31;6.18;;;2.85;;
75700;SDS011;64321;48.796;44.740;2023-09-19T09:05:34;4.53;;;2.80;;
75700;SDS011;64321;48.796;44.740;2023-09-19T09:10:37;8.35;;;3.75;;
75700;SDS011;64321;48.796;44.740;2023-09-19T09:15:40;6.28;;;3.22;;
75700;SDS011;64321;48.796;44.740;2023-09-19T09:20:44;8.77;;;3.65;;
75700;SDS011;64321;48.796;44.740;2023-09-19T09:30:49;6.13;;;2.97;;
75700;SDS011;64321;48.796;44.740;2023-09-19T09:35:56;5.88;;;2.58;;
75700;SDS011;64321;48.796;44.740;2023-09-19T09:40:59;5.78;;;2.83;;
75700;SDS011;64321;48.796;44.740;2023-09-19T09:46:08;5.30;;;3.13;;
75700;SDS011;64321;48.796;44.740;2023-09-19T09:51:30;5.03;;;2.45;;
75700;SDS011;64321;48.796;44.740;2023-09-19T09:56:32;4.60;;;2.28;;
75700;SDS011;64321;48.796;44.740;2023-09-19T10:01:46;7.32;;;2.70;;
75700;SDS011;64321;48.796;44.740;2023-09-19T10:06:49;4.55;;;2.70;;
75700;SDS011;64321;48.796;44.740;2023-09-19T10:12:03;4.40;;;2.65;;
75700;SDS011;64321;48.796;44.740;2023-09-19T10:17:08;5.55;;;2.05;;
75700;SDS011;64321;48.796;44.740;2023-09-19T10:22:12;5.03;;;2.80;;
75700;SDS011;64321;48.796;44.740;2023-09-19T10:27:23;5.38;;;2.58;;
75700;SDS011;64321;48.796;44.740;2023-09-19T10:32:28;5.15;;;2.50;;
75700;SDS011;64321;48.796;44.740;2023-09-19T10:37:35;5.68;;;2.33;;
75700;SDS011;64321;48.796;44.740;2023-09-19T10:42:40;5.22;;;2.47;;
75700;SDS011;64321;48.796;44.740;2023-09-19T10:47:43;5.35;;;2.13;;
75700;SDS011;64321;48.796;44.740;2023-09-19T10:52:47;5.28;;;2.13;;
75700;SDS011;64321;48.796;44.740;2023-09-19T10:57:53;5.07;;;2.40;;
75700;SDS011;64321;48.796;44.740;2023-09-19T11:13:31;5.13;;;2.33;;
75700;SDS011;64321;48.796;44.740;2023-09-19T11:23:43;4.65;;;2.13;;
75700;SDS011;64321;48.796;44.740;2023-09-19T11:34:40;4.28;;;2.35;;
75700;SDS011;64321;48.796;44.740;2023-09-19T11:50:39;4.38;;;2.67;;
75700;SDS011;64321;48.796;44.740;2023-09-19T11:55:45;5.45;;;2.30;;
75700;SDS011;64321;48.796;44.740;2023-09-19T12:00:53;4.53;;;2.10;;
75700;SDS011;64321;48.796;44.740;2023-09-19T12:05:57;4.47;;;2.05;;
75700;SDS011;64321;48.796;44.740;2023-09-19T12:11:04;5.55;;;2.05;;
75700;SDS011;64321;48.796;44.740;2023-09-19T12:16:16;4.15;;;2.30;;
75700;SDS011;64321;48.796;44.740;2023-09-19T12:21:26;4.88;;;2.58;;
75700;SDS011;64321;48.796;44.740;2023-09-19T12:26:40;4.43;;;2.35;;
75700;SDS011;64321;48.796;44.740;2023-09-19T12:31:55;5.53;;;2.53;;
75700;SDS011;64321;48.796;44.740;2023-09-19T12:42:28;4.25;;;1.98;;
75700;SDS011;64321;48.796;44.740;2023-09-19T12:47:34;10.32;;;2.78;;
75700;SDS011;64321;48.796;44.740;2023-09-19T12:52:37;6.75;;;2.35;;
75700;SDS011;64321;48.796;44.740;2023-09-19T12:57:40;9.50;;;2.85;;
75700;SDS011;64321;48.796;44.740;2023-09-19T13:08:17;8.13;;;3.58;;
75700;SDS011;64321;48.796;44.740;2023-09-19T13:13:23;6.43;;;2.83;;
75700;SDS011;64321;48.796;44.740;2023-09-19T13:18:29;7.68;;;3.28;;
75700;SDS011;64321;48.796;44.740;2023-09-19T13:23:32;5.43;;;3.08;;
75700;SDS011;64321;48.796;44.740;2023-09-19T13:28:35;6.30;;;2.90;;
75700;SDS011;64321;48.796;44.740;2023-09-19T13:33:44;5.63;;;2.72;;
75700;SDS011;64321;48.796;44.740;2023-09-19T13:38:47;4.90;;;2.65;;
75700;SDS011;64321;48.796;44.740;2023-09-19T13:43:51;7.80;;;2.75;;
75700;SDS011;64321;48.796;44.740;2023-09-19T13:48:53;4.22;;;2.30;;
75700;SDS011;64321;48.796;44.740;2023-09-19T13:53:57;4.95;;;2.75;;
75700;SDS011;64321;48.796;44.740;2023-09-19T13:58:59;7.25;;;2.88;;
75700;SDS011;64321;48.796;44.740;2023-09-19T14:04:01;7.10;;;3.25;;
75700;SDS011;64321;48.796;44.740;2023-09-19T14:09:04;7.85;;;3.17;;
75700;SDS011;64321;48.796;44.740;2023-09-19T14:14:06;5.57;;;3.17;;
75700;SDS011;64321;48.796;44.740;2023-09-19T14:19:09;10.52;;;3.67;;
75700;SDS011;64321;48.796;44.740;2023-09-19T14:24:16;8.15;;;3.35;;
75700;SDS011;64321;48.796;44.740;2023-09-19T14:29:18;10.55;;;3.50;;
75700;SDS011;64321;48.796;44.740;2023-09-19T14:34:21;6.57;;;3.03;;
75700;SDS011;64321;48.796;44.740;2023-09-19T14:39:23;9.15;;;3.95;;
75700;SDS011;64321;48.796;44.740;2023-09-19T14:44:26;11.30;;;3.65;;
75700;SDS011;64321;48.796;44.740;2023-09-19T14:49:30;8.38;;;3.17;;
75700;SDS011;64321;48.796;44.740;2023-09-19T14:54:35;8.20;;;3.40;;
75700;SDS011;64321;48.796;44.740;2023-09-19T14:59:37;8.35;;;3.55;;
75700;SDS011;64321;48.796;44.740;2023-09-19T15:04:44;8.15;;;4.65;;
75700;SDS011;64321;48.796;44.740;2023-09-19T15:09:49;9.90;;;4.03;;
75700;SDS011;64321;48.796;44.740;2023-09-19T15:14:51;8.15;;;3.58;;
75700;SDS011;64321;48.796;44.740;2023-09-19T15:19:54;9.15;;;4.10;;
75700;SDS011;64321;48.796;44.740;2023-09-19T15:24:59;16.23;;;4.88;;
75700;SDS011;64321;48.796;44.740;2023-09-19T15:30:02;13.73;;;4.38;;
75700;SDS011;64321;48.796;44.740;2023-09-19T15:35:07;15.15;;;4.75;;
75700;SDS011;64321;48.796;44.740;2023-09-19T15:40:11;13.10;;;4.90;;
75700;SDS011;64321;48.796;44.740;2023-09-19T15:45:14;14.15;;;4.72;;
75700;SDS011;64321;48.796;44.740;2023-09-19T15:56:01;14.52;;;4.60;;
75700;SDS011;64321;48.796;44.740;2023-09-19T16:01:08;23.63;;;11.93;;
75700;SDS011;64321;48.796;44.740;2023-09-19T16:06:16;24.10;;;9.90;;
75700;SDS011;64321;48.796;44.740;2023-09-19T16:11:20;32.25;;;16.25;;
75700;SDS011;64321;48.796;44.740;2023-09-19T16:16:23;41.28;;;19.08;;
75700;SDS011;64321;48.796;44.740;2023-09-19T16:21:26;36.15;;;16.42;;
75700;SDS011;64321;48.796;44.740;2023-09-19T16:26:29;44.40;;;23.05;;
75700;SDS011;64321;48.796;44.740;2023-09-19T16:31:32;40.95;;;17.55;;
75700;SDS011;64321;48.796;44.740;2023-09-19T16:36:37;25.02;;;13.13;;
75700;SDS011;64321;48.796;44.740;2023-09-19T16:41:40;31.42;;;14.07;;
75700;SDS011;64321;48.796;44.740;2023-09-19T16:46:43;29.42;;;12.45;;
75700;SDS011;64321;48.796;44.740;2023-09-19T16:51:46;41.35;;;19.33;;
75700;SDS011;64321;48.796;44.740;2023-09-19T16:56:49;37.90;;;14.50;;
75700;SDS011;64321;48.796;44.740;2023-09-19T17:01:51;34.67;;;15.23;;
75700;SDS011;64321;48.796;44.740;2023-09-19T17:06:53;39.58;;;15.40;;
75700;SDS011;64321;48.796;44.740;2023-09-19T17:11:56;56.88;;;26.27;;
75700;SDS011;64321;48.796;44.740;2023-09-19T17:16:59;38.58;;;16.20;;
75700;SDS011;64321;48.796;44.740;2023-09-19T17:22:02;42.70;;;18.38;;
75700;SDS011;64321;48.796;44.740;2023-09-19T17:27:04;54.38;;;23.88;;
75700;SDS011;64321;48.796;44.740;2023-09-19T17:32:06;55.67;;;23.42;;
75700;SDS011;64321;48.796;44.740;2023-09-19T17:37:09;53.22;;;23.02;;
75700;SDS011;64321;48.796;44.740;2023-09-19T17:42:12;41.22;;;19.70;;
75700;SDS011;64321;48.796;44.740;2023-09-19T17:47:15;36.50;;;17.15;;
75700;SDS011;64321;48.796;44.740;2023-09-19T17:52:19;47.70;;;19.55;;
75700;SDS011;64321;48.796;44.740;2023-09-19T17:57:22;37.80;;;16.50;;
75700;SDS011;64321;48.796;44.740;2023-09-19T18:02:25;43.03;;;18.00;;
75700;SDS011;64321;48.796;44.740;2023-09-19T18:07:27;41.47;;;17.42;;
75700;SDS011;64321;48.796;44.740;2023-09-19T18:12:29;38.53;;;15.75;;
75700;SDS011;64321;48.796;44.740;2023-09-19T18:17:33;38.88;;;17.45;;
75700;SDS011;64321;48.796;44.740;2023-09-19T18:22:37;31.38;;;14.38;;
75700;SDS011;64321;48.796;44.740;2023-09-19T18:27:39;31.95;;;13.05;;
75700;SDS011;64321;48.796;44.740;2023-09-19T18:32:43;42.28;;;18.17;;
75700;SDS011;64321;48.796;44.740;2023-09-19T18:37:46;39.83;;;18.90;;
75700;SDS011;64321;48.796;44.740;2023-09-19T18:42:48;40.17;;;18.52;;
75700;SDS011;64321;48.796;44.740;2023-09-19T18:47:50;38.10;;;15.70;;
75700;SDS011;64321;48.796;44.740;2023-09-19T18:52:53;34.50;;;13.65;;
75700;SDS011;64321;48.796;44.740;2023-09-19T18:57:55;38.33;;;15.25;;
75700;SDS011;64321;48.796;44.740;2023-09-19T19:02:57;31.13;;;12.15;;
75700;SDS011;64321;48.796;44.740;2023-09-19T19:08:00;25.52;;;10.80;;
75700;SDS011;64321;48.796;44.740;2023-09-19T19:13:03;36.33;;;15.50;;
75700;SDS011;64321;48.796;44.740;2023-09-19T19:18:05;26.13;;;11.27;;
75700;SDS011;64321;48.796;44.740;2023-09-19T19:23:08;27.08;;;11.95;;
75700;SDS011;64321;48.796;44.740;2023-09-19T19:28:14;28.33;;;12.88;;
75700;SDS011;64321;48.796;44.740;2023-09-19T19:33:16;33.50;;;12.98;;
75700;SDS011;64321;48.796;44.740;2023-09-19T19:38:18;18.92;;;7.85;;
75700;SDS011;64321;48.796;44.740;2023-09-19T19:43:22;26.05;;;9.40;;
75700;SDS011;64321;48.796;44.740;2023-09-19T19:48:24;25.20;;;11.50;;
75700;SDS011;64321;48.796;44.740;2023-09-19T19:53:27;22.33;;;10.90;;
75700;SDS011;64321;48.796;44.740;2023-09-19T19:58:32;22.92;;;10.60;;
75700;SDS011;64321;48.796;44.740;2023-09-19T20:03:35;25.88;;;11.25;;
75700;SDS011;64321;48.796;44.740;2023-09-19T20:08:40;23.60;;;9.68;;
75700;SDS011;64321;48.796;44.740;2023-09-19T20:13:43;23.35;;;10.43;;
75700;SDS011;64321;48.796;44.740;2023-09-19T20:18:45;25.60;;;10.52;;
75700;SDS011;64321;48.796;44.740;2023-09-19T20:23:48;28.13;;;10.73;;
75700;SDS011;64321;48.796;44.740;2023-09-19T20:28:51;22.95;;;10.15;;
75700;SDS011;64321;48.796;44.740;2023-09-19T20:33:56;22.98;;;10.95;;
75700;SDS011;64321;48.796;44.740;2023-09-19T20:38:59;24.92;;;10.00;;
75700;SDS011;64321;48.796;44.740;2023-09-19T20:44:01;26.17;;;10.75;;
75700;SDS011;64321;48.796;44.740;2023-09-19T20:49:04;26.05;;;10.75;;
75700;SDS011;64321;48.796;44.740;2023-09-19T20:54:06;26.35;;;11.15;;
75700;SDS011;64321;48.796;44.740;2023-09-19T20:59:09;24.40;;;10.95;;
75700;SDS011;64321;48.796;44.740;2023-09-19T21:04:13;25.63;;;10.50;;
75700;SDS011;64321;48.796;44.740;2023-09-19T21:09:15;21.35;;;10.55;;
75700;SDS011;64321;48.796;44.740;2023-09-19T21:14:19;26.45;;;11.02;;
75700;SDS011;64321;48.796;44.740;2023-09-19T21:19:21;25.23;;;10.65;;
75700;SDS011;64321;48.796;44.740;2023-09-19T21:24:23;22.88;;;10.80;;
75700;SDS011;64321;48.796;44.740;2023-09-19T21:29:28;22.48;;;10.65;;
75700;SDS011;64321;48.796;44.740;2023-09-19T21:34:30;24.65;;;10.98;;
75700;SDS011;64321;48.796;44.740;2023-09-19T21:39:32;22.08;;;8.95;;
75700;SDS011;64321;48.796;44.740;2023-09-19T21:44:35;22.92;;;10.55;;
75700;SDS011;64321;48.796;44.740;2023-09-19T21:49:38;30.48;;;11.13;;
75700;SDS011;64321;48.796;44.740;2023-09-19T21:54:40;24.92;;;11.05;;
75700;SDS011;64321;48.796;44.740;2023-09-19T21:59:42;22.95;;;10.48;;
75700;SDS011;64321;48.796;44.740;2023-09-19T22:04:49;22.67;;;10.15;;
75700;SDS011;64321;48.796;44.740;2023-09-19T22:09:52;27.00;;;11.98;;
75700;SDS011;64321;48.796;44.740;2023-09-19T22:14:54;24.75;;;11.63;;
75700;SDS011;64321;48.796;44.740;2023-09-19T22:19:56;24.88;;;11.65;;
75700;SDS011;64321;48.796;44.740;2023-09-19T22:24:58;30.40;;;11.52;;
75700;SDS011;64321;48.796;44.740;2023-09-19T22:30:04;29.33;;;11.25;;
75700;SDS011;64321;48.796;44.740;2023-09-19T22:35:07;23.90;;;11.60;;
75700;SDS011;64321;48.796;44.740;2023-09-19T22:40:09;28.90;;;13.50;;
75700;SDS011;64321;48.796;44.740;2023-09-19T22:45:27;29.83;;;14.80;;
75700;SDS011;64321;48.796;44.740;2023-09-19T22:50:32;25.40;;;13.07;;
75700;SDS011;64321;48.796;44.740;2023-09-19T22:55:38;27.42;;;13.23;;
75700;SDS011;64321;48.796;44.740;2023-09-19T23:00:42;26.33;;;12.55;;
75700;SDS011;64321;48.796;44.740;2023-09-19T23:05:48;28.90;;;15.00;;
75700;SDS011;64321;48.796;44.740;2023-09-19T23:10:50;27.90;;;12.38;;
75700;SDS011;64321;48.796;44.740;2023-09-19T23:15:54;29.42;;;14.75;;
75700;SDS011;64321;48.796;44.740;2023-09-19T23:21:00;27.35;;;12.88;;
75700;SDS011;64321;48.796;44.740;2023-09-19T23:26:31;29.60;;;12.43;;
75700;SDS011;64321;48.796;44.740;2023-09-19T23:31:33;26.45;;;13.32;;
75700;SDS011;64321;48.796;44.740;2023-09-19T23:36:39;26.85;;;13.82;;
75700;SDS011;64321;48.796;44.740;2023-09-19T23:41:42;29.63;;;14.60;;
75700;SDS011;64321;48.796;44.740;2023-09-19T23:46:44;27.63;;;12.90;;
75700;SDS011;64321;48.796;44.740;2023-09-19T23:51:54;27.92;;;12.75;;
75700;SDS011;64321;48.796;44.740;2023-09-19T23:56:58;24.45;;;12.15;;
